createdAt,value
2018-07-17T00:04:36.571Z,81.1
2018-07-17T00:09:36.442Z,80.6
2018-07-17T00:14:36.613Z,81.7
2018-07-17T00:19:36.346Z,81.8
2018-07-17T00:24:36.593Z,82.3
2018-07-17T00:29:36.649Z,84.1
2018-07-17T00:34:37.469Z,82.9
2018-07-17T00:39:37.374Z,83.4
2018-07-17T00:44:49.721Z,83.6
2018-07-17T00:49:49.453Z,84
2018-07-17T00:54:49.372Z,84.1
2018-07-17T00:59:49.583Z,84.1
2018-07-17T01:04:59.695Z,83.8
2018-07-17T01:09:59.547Z,83
2018-07-17T01:14:59.375Z,82.9
2018-07-17T01:19:59.439Z,82.6
2018-07-17T01:24:59.573Z,82.1
2018-07-17T01:29:59.538Z,82.5
2018-07-17T01:34:59.476Z,83.6
2018-07-17T01:40:00.257Z,83.2
2018-07-17T01:45:00.194Z,82.9
2018-07-17T01:50:12.496Z,82.7
2018-07-17T01:55:12.446Z,82.9
2018-07-17T02:00:12.487Z,82.7
2018-07-17T02:05:12.405Z,82.7
2018-07-17T02:10:12.259Z,83.2
2018-07-17T02:15:12.515Z,82.7
2018-07-17T02:20:12.228Z,82.9
2018-07-17T02:25:12.425Z,82.7
2018-07-17T02:30:21.467Z,81.5
2018-07-17T02:35:21.224Z,80.4
2018-07-17T02:40:21.208Z,80.6
2018-07-17T02:45:23.383Z,81.4
2018-07-17T02:50:23.387Z,80.7
2018-07-17T02:55:23.132Z,80.6
2018-07-17T03:00:23.317Z,81.2
2018-07-17T03:05:23.329Z,81.3
2018-07-17T03:10:23.129Z,79.6
2018-07-17T03:15:23.130Z,81
2018-07-17T03:20:23.363Z,81.4
2018-07-17T03:25:23.375Z,83.1
2018-07-17T03:30:23.315Z,82.6
2018-07-17T03:35:23.331Z,82.4
2018-07-17T03:40:23.458Z,82.3
2018-07-17T03:45:23.325Z,81.7
2018-07-17T03:50:23.402Z,81.5
2018-07-17T03:55:23.171Z,81.5
2018-07-17T04:00:23.346Z,79.8
2018-07-17T04:05:23.304Z,82
2018-07-17T04:10:23.479Z,82.7
2018-07-17T04:15:35.489Z,81.9
2018-07-17T04:20:35.444Z,81.9
2018-07-17T04:25:35.212Z,80.5
2018-07-17T04:30:35.363Z,81.7
2018-07-17T04:35:35.464Z,82
2018-07-17T04:40:35.491Z,81.6
2018-07-17T04:45:35.642Z,81.1
2018-07-17T04:50:35.989Z,79.6
2018-07-17T04:55:35.713Z,79.3
2018-07-17T05:00:48.297Z,79.2
2018-07-17T05:05:48.229Z,80.8
2018-07-17T05:10:48.268Z,79.5
2018-07-17T05:15:48.298Z,79
2018-07-17T05:20:48.037Z,78.2
2018-07-17T05:25:48.268Z,77.9
2018-07-17T05:30:48.054Z,75.4
2018-07-17T05:35:48.874Z,74.9
2018-07-17T05:40:48.819Z,74.7
2018-07-17T05:46:02.380Z,74
2018-07-17T05:51:02.248Z,74.4
2018-07-17T05:56:02.273Z,73.9
2018-07-17T06:01:02.239Z,73.2
2018-07-17T06:06:02.236Z,73.7
2018-07-17T06:11:02.382Z,73
2018-07-17T06:16:02.232Z,73.2
2018-07-17T06:21:05.512Z,73.2
2018-07-17T06:26:05.456Z,72.7
2018-07-17T06:31:15.983Z,72.8
2018-07-17T06:36:15.704Z,72.9
2018-07-17T06:41:15.927Z,73.1
2018-07-17T06:46:15.830Z,74.2
2018-07-17T06:51:15.718Z,74
2018-07-17T06:56:15.943Z,74.3
2018-07-17T07:01:15.664Z,74.8
2018-07-17T07:06:16.469Z,74.5
2018-07-17T07:11:16.632Z,74.2
2018-07-17T07:16:29.168Z,74.8
2018-07-17T07:21:28.900Z,75.1
2018-07-17T07:26:28.908Z,74.9
2018-07-17T07:31:29.177Z,73.9
2018-07-17T07:36:29.122Z,74.1
2018-07-17T07:41:28.960Z,74.8
2018-07-17T07:46:29.042Z,74
2018-07-17T07:51:29.884Z,73.7
2018-07-17T07:56:29.658Z,71.2
2018-07-17T08:01:42.107Z,75.5
2018-07-17T08:06:41.864Z,78
2018-07-17T08:11:42.045Z,77.9
2018-07-17T08:16:41.857Z,79.9
2018-07-17T08:21:41.996Z,79.1
2018-07-17T08:26:41.846Z,77.8
2018-07-17T08:31:41.841Z,77.8
2018-07-17T08:36:43.271Z,79.6
2018-07-17T08:41:43.187Z,78
2018-07-17T08:46:57.561Z,76.2
2018-07-17T08:51:57.472Z,77.6
2018-07-17T08:56:57.492Z,75.1
2018-07-17T09:01:57.442Z,74.5
2018-07-17T09:06:57.491Z,73.5
2018-07-17T09:11:57.523Z,71.4
2018-07-17T09:16:57.828Z,71.8
2018-07-17T09:21:57.331Z,71.6
2018-07-17T09:26:57.579Z,70.2
2018-07-17T09:32:10.640Z,70.6
2018-07-17T09:37:10.381Z,67.9
2018-07-17T09:42:10.647Z,68.9
2018-07-17T09:47:10.358Z,67.1
2018-07-17T09:52:10.615Z,66.8
2018-07-17T09:57:10.374Z,66.7
2018-07-17T10:02:10.528Z,65.2
2018-07-17T10:07:10.376Z,65.4
2018-07-17T10:12:10.651Z,62.8
2018-07-17T10:17:10.577Z,62.7
2018-07-17T10:22:10.387Z,61.9
2018-07-17T10:27:10.457Z,62.1
2018-07-17T10:32:10.651Z,60.2
2018-07-17T10:37:10.624Z,60.5
2018-07-17T10:42:23.108Z,59.1
2018-07-17T10:47:23.034Z,59.8
2018-07-17T10:52:22.640Z,58.2
2018-07-17T10:57:22.692Z,59.8
2018-07-17T11:02:22.969Z,57.8
2018-07-17T11:07:23.076Z,57.1
2018-07-17T11:12:23.074Z,56.1
2018-07-17T11:17:25.539Z,55.1
2018-07-17T11:22:25.391Z,54.7
2018-07-17T11:27:37.671Z,53.8
2018-07-17T11:32:37.302Z,52.4
2018-07-17T11:37:37.636Z,51.5
2018-07-17T11:42:37.406Z,51.9
2018-07-17T11:47:37.384Z,51.8
2018-07-17T11:52:37.373Z,52.3
2018-07-17T11:57:37.396Z,49.7
2018-07-17T12:02:37.797Z,50
2018-07-17T12:07:37.653Z,46.7
2018-07-17T12:12:50.165Z,46.8
2018-07-17T12:17:49.648Z,46.6
2018-07-17T12:22:49.722Z,47
2018-07-17T12:27:49.474Z,47.6
2018-07-17T12:32:49.510Z,47.3
2018-07-17T12:37:52.094Z,46.1
2018-07-17T12:42:49.498Z,46.5
2018-07-17T12:47:49.480Z,46
2018-07-17T12:52:49.713Z,45.8
2018-07-17T12:58:02.022Z,43.6
2018-07-17T13:03:01.741Z,43.8
2018-07-17T13:08:02.021Z,43.5
2018-07-17T13:13:01.919Z,45.4
2018-07-17T13:18:01.776Z,43.6
2018-07-17T13:23:02.029Z,43.3
2018-07-17T13:28:01.924Z,40.8
2018-07-17T13:33:03.516Z,40.7
2018-07-17T13:38:03.232Z,40.9
2018-07-17T13:43:16.006Z,39.6
2018-07-17T13:48:15.746Z,43.3
2018-07-17T13:53:15.920Z,43.2
2018-07-17T13:58:15.738Z,45.8
2018-07-17T14:03:16.009Z,46.7
2018-07-17T14:08:15.981Z,47.8
2018-07-17T14:13:15.976Z,48
2018-07-17T14:18:16.708Z,48.6
2018-07-17T14:23:16.398Z,48.1
2018-07-17T14:28:31.851Z,49.2
2018-07-17T14:33:31.600Z,49.2
2018-07-17T14:38:31.688Z,47.5
2018-07-17T14:43:31.583Z,46.5
2018-07-17T14:48:31.598Z,45.6
2018-07-17T14:53:31.682Z,45.6
2018-07-17T14:58:31.708Z,45.9
2018-07-17T15:03:32.165Z,46
2018-07-17T15:08:31.862Z,46.8
2018-07-17T15:13:44.482Z,46.2
2018-07-17T15:18:44.259Z,47.3
2018-07-17T15:23:44.682Z,46.6
2018-07-17T15:28:44.153Z,47.8
2018-07-17T15:33:44.752Z,47.6
2018-07-17T15:38:44.189Z,46.9
2018-07-17T15:43:44.228Z,47.5
2018-07-17T15:48:46.070Z,46.9
2018-07-17T15:53:45.908Z,45.7
2018-07-17T15:58:58.587Z,39.6
2018-07-17T16:03:58.470Z,38.7
2018-07-17T16:08:58.272Z,37.9
2018-07-17T16:13:59.217Z,38.5
2018-07-17T16:18:58.354Z,40
2018-07-17T16:23:58.314Z,40.9
2018-07-17T16:28:58.436Z,41.8
2018-07-17T16:33:58.338Z,42.8
2018-07-17T16:38:58.540Z,43.6
2018-07-17T16:44:10.482Z,43.2
2018-07-17T16:49:10.376Z,44.9
2018-07-17T16:54:10.551Z,43.3
2018-07-17T16:59:10.181Z,43.3
2018-07-17T17:04:10.215Z,44.6
2018-07-17T17:09:10.224Z,44.9
2018-07-17T17:14:10.330Z,44.8
2018-07-17T17:19:10.194Z,44.3
2018-07-17T17:24:10.567Z,44.6
2018-07-17T17:29:10.161Z,45.2
2018-07-17T17:34:10.227Z,46.3
2018-07-17T17:39:10.411Z,46
2018-07-17T17:44:13.054Z,45.8
2018-07-17T17:49:12.909Z,46.8
2018-07-17T17:54:25.565Z,46.3
2018-07-17T17:59:25.273Z,47
2018-07-17T18:04:25.425Z,46.6
2018-07-17T18:09:25.251Z,46.5
2018-07-17T18:14:25.511Z,47.4
2018-07-17T18:19:25.316Z,47.7
2018-07-17T18:24:25.536Z,48.5
2018-07-17T18:29:25.980Z,49.3
2018-07-17T18:34:25.841Z,49.6
2018-07-17T18:39:38.077Z,50.3
2018-07-17T18:44:38.069Z,50.5
2018-07-17T18:49:37.972Z,49.9
2018-07-17T18:54:37.859Z,49.9
2018-07-17T18:59:38.197Z,49.8
2018-07-17T19:04:37.965Z,51.3
2018-07-17T19:09:37.960Z,51.9
2018-07-17T19:14:38.872Z,51.4
2018-07-17T19:19:38.774Z,52.4
2018-07-17T19:24:51.802Z,52.4
2018-07-17T19:29:51.704Z,52.4
2018-07-17T19:34:51.565Z,53.1
2018-07-17T19:39:51.818Z,52.9
2018-07-17T19:44:51.738Z,53.2
2018-07-17T19:49:55.011Z,52.4
2018-07-17T19:54:54.882Z,52
2018-07-17T19:59:54.915Z,52.4
2018-07-17T20:04:55.568Z,52.5
2018-07-17T20:09:54.697Z,52.6
2018-07-17T20:14:56.518Z,53.1
2018-07-17T20:19:56.517Z,53
2018-07-17T20:24:59.488Z,52.3
2018-07-17T20:30:02.012Z,52.6
2018-07-17T20:35:11.938Z,51.8
2018-07-17T20:40:11.741Z,51.3
2018-07-17T20:45:11.847Z,51.3
2018-07-17T20:50:11.827Z,51.4
2018-07-17T20:55:11.631Z,51
2018-07-17T21:00:11.642Z,51.3
2018-07-17T21:05:11.630Z,52.3
2018-07-17T21:10:15.220Z,52.3
2018-07-17T21:15:14.977Z,52.8
2018-07-17T21:20:29.625Z,52.5
2018-07-17T21:25:29.509Z,53
2018-07-17T21:30:29.417Z,53.3
2018-07-17T21:35:29.439Z,52.9
2018-07-17T21:40:29.262Z,54
2018-07-17T21:45:29.275Z,53.1
2018-07-17T21:50:29.454Z,54.2
2018-07-17T21:55:33.047Z,54.3
2018-07-17T22:00:32.953Z,54.3
2018-07-17T22:05:46.490Z,55.4
2018-07-17T22:10:46.243Z,54.5
2018-07-17T22:15:46.360Z,54.7
2018-07-17T22:20:46.184Z,55.2
2018-07-17T22:25:46.333Z,55.5
2018-07-17T22:30:46.372Z,55.5
2018-07-17T22:35:46.412Z,55.8
2018-07-17T22:40:46.680Z,55.9
2018-07-17T22:45:46.576Z,56.9
2018-07-17T22:50:58.964Z,56.6
2018-07-17T22:55:58.737Z,57
2018-07-17T23:00:58.525Z,57.5
2018-07-17T23:05:58.518Z,57.8
2018-07-17T23:10:58.568Z,57.6
2018-07-17T23:15:58.686Z,58.6
2018-07-17T23:20:58.582Z,57.8
2018-07-17T23:25:59.012Z,58.4
2018-07-17T23:30:58.736Z,58.5
2018-07-17T23:36:11.732Z,58.5
2018-07-17T23:41:11.401Z,58.8
2018-07-17T23:46:11.568Z,58.3
2018-07-17T23:51:11.608Z,57.5
2018-07-17T23:56:11.450Z,58.3
